Tutuzlupinar, Turkey
Current Conditions -  °F | °C
As of 5:20 PM on Thursday 30 Oct 2014 (Local Time) from LTAP Reporting Station
Rain Showers Rain Showers  
Wind Chill: 54°   Ceiling: 3300
Heat Index: 54°   Visibility: 2.5mi
Dew Point: 50°   Wind: 0mph
Humidity: 88%   Direction: NA
Pressure: 29.91"   Gusts: NA
Location:  41.98°N, 35.09°E
Report Text: LTAP 301420Z 00000KT 4000 -SHRA BR SCT011 BKN033 BKN080 12/10 Q1013 BECMG TL1520 9999 NSW
Loading
Personal Weather Stations






























Interactive Weather Map
Tropical Storm Tracking
New forecast layout! Learn more

10-Day Weather Forecast

Advertisements
Track Severe Weather on mobile